Time;durP1;ratioP1;P1;durP2;ratioP2;P2;SDS_P1;SDS_P2;PMS_P1;PMS_P2;Temp;Humidity;BMP_temperature;BMP_pressure;BME280_temperature;BME280_humidity;BME280_pressure;Samples;Min_cycle;Max_cycle;Signal;HPM_P1;HPM_P2
2023/02/14 00:01:12;;;;;;;12.95;6.28;;;0.90;99.90;;;;;;8229392;28;20034;-79
2023/02/14 00:05:13;;;;;;;15.45;6.18;;;0.90;99.90;;;;;;8229962;28;20079;-79
2023/02/14 00:09:15;;;;;;;11.68;5.80;;;0.80;99.90;;;;;;8231250;28;20031;-79
2023/02/14 00:13:16;;;;;;;20.75;5.15;;;0.80;99.90;;;;;;8235690;28;20125;-79
2023/02/14 00:17:16;;;;;;;23.80;6.47;;;0.90;99.90;;;;;;8237002;28;20031;-79
2023/02/14 00:21:17;;;;;;;10.93;4.50;;;0.80;99.90;;;;;;8237205;28;20037;-79
2023/02/14 00:25:18;;;;;;;16.52;6.63;;;0.80;99.90;;;;;;8236267;28;20041;-80
2023/02/14 00:29:22;;;;;;;14.82;6.25;;;0.70;99.90;;;;;;8236050;28;20403;-80
2023/02/14 00:33:22;;;;;;;9.10;5.65;;;0.60;99.90;;;;;;8236095;28;20035;-79
2023/02/14 00:37:23;;;;;;;18.23;5.28;;;0.50;99.90;;;;;;8234746;28;20041;-80
2023/02/14 00:41:23;;;;;;;11.02;5.57;;;0.60;99.90;;;;;;8235682;28;20019;-79
2023/02/14 00:45:24;;;;;;;20.83;6.65;;;0.90;99.90;;;;;;8235451;28;20081;-80
2023/02/14 00:49:25;;;;;;;16.55;6.63;;;0.80;99.90;;;;;;8235937;28;20031;-80
2023/02/14 00:53:25;;;;;;;20.33;6.25;;;0.60;99.90;;;;;;8235930;28;20090;-80
2023/02/14 00:57:26;;;;;;;13.18;6.38;;;0.40;99.90;;;;;;8234630;28;20023;-80
2023/02/14 01:01:27;;;;;;;10.18;5.70;;;0.50;99.90;;;;;;8235744;28;20544;-80
2023/02/14 01:05:28;;;;;;;12.52;6.05;;;0.40;99.90;;;;;;8237174;28;20082;-81
2023/02/14 01:09:28;;;;;;;8.02;5.15;;;0.40;99.90;;;;;;8235511;28;20538;-80
2023/02/14 01:13:29;;;;;;;12.00;5.22;;;0.60;99.90;;;;;;8234071;28;20057;-80
2023/02/14 01:17:29;;;;;;;7.82;4.47;;;0.40;99.90;;;;;;8240479;28;20022;-80
2023/02/14 01:21:32;;;;;;;14.98;5.82;;;0.30;99.90;;;;;;8234306;28;20115;-80
2023/02/14 01:25:35;;;;;;;19.13;5.82;;;0.30;99.90;;;;;;8235500;28;20026;-80
2023/02/14 01:29:35;;;;;;;13.80;5.63;;;0.40;99.90;;;;;;8235694;28;20031;-80
2023/02/14 01:33:36;;;;;;;16.70;5.75;;;0.10;99.90;;;;;;8236544;28;20553;-80
2023/02/14 01:37:37;;;;;;;14.07;5.28;;;0.20;99.90;;;;;;8234710;28;20376;-80
2023/02/14 01:41:40;;;;;;;11.40;5.38;;;0.40;99.90;;;;;;8234874;28;20019;-81
2023/02/14 01:45:40;;;;;;;24.83;6.07;;;0.30;99.90;;;;;;8235082;28;20054;-80
2023/02/14 01:49:50;;;;;;;17.25;6.22;;;0.30;99.90;;;;;;8234503;28;20022;-80
2023/02/14 01:53:52;;;;;;;30.35;6.70;;;0.10;99.90;;;;;;8233523;28;20033;-80
2023/02/14 01:58:01;;;;;;;9.55;5.65;;;0.00;99.90;;;;;;8233845;28;20046;-81
2023/02/14 02:02:03;;;;;;;13.05;6.53;;;0.00;99.90;;;;;;8230155;28;20027;-81
2023/02/14 02:06:15;;;;;;;21.13;6.72;;;0.20;99.90;;;;;;8233123;28;20030;-80
2023/02/14 02:10:16;;;;;;;12.75;6.65;;;0.40;99.90;;;;;;8233489;28;20062;-80
2023/02/14 02:14:20;;;;;;;13.32;5.93;;;0.40;99.90;;;;;;8233020;28;20039;-80
2023/02/14 02:18:42;;;;;;;19.58;6.47;;;0.30;99.90;;;;;;8233396;28;20496;-80
2023/02/14 02:23:26;;;;;;;15.93;6.10;;;0.10;99.90;;;;;;8233395;28;20027;-81
2023/02/14 02:28:03;;;;;;;12.00;6.78;;;0.00;99.90;;;;;;8228606;28;20162;-80
2023/02/14 02:32:19;;;;;;;17.13;6.38;;;0.10;99.90;;;;;;8232635;28;20093;-81
2023/02/14 02:36:47;;;;;;;21.58;6.63;;;0.10;99.90;;;;;;8225392;28;20023;-79
2023/02/14 02:41:07;;;;;;;12.30;6.22;;;0.00;99.90;;;;;;8221382;28;20041;-79
2023/02/14 02:45:19;;;;;;;11.73;6.77;;;0.10;99.90;;;;;;8230430;28;20385;-79
2023/02/14 02:53:48;;;;;;;19.40;6.70;;;0.50;99.90;;;;;;8228314;28;20037;-79
2023/02/14 02:57:50;;;;;;;14.48;7.18;;;0.50;99.90;;;;;;8229875;28;20086;-79
2023/02/14 03:02:00;;;;;;;19.27;5.93;;;0.50;99.90;;;;;;8230485;28;20023;-78
2023/02/14 03:06:01;;;;;;;28.23;7.32;;;0.50;99.90;;;;;;8228141;28;20528;-79
2023/02/14 03:10:06;;;;;;;18.65;7.25;;;0.60;99.90;;;;;;8229604;28;20518;-80
2023/02/14 03:14:21;;;;;;;29.48;6.95;;;0.40;99.90;;;;;;8229821;28;20034;-81
2023/02/14 03:18:36;;;;;;;33.40;8.20;;;0.20;99.90;;;;;;8227077;28;20061;-81
2023/02/14 03:22:47;;;;;;;18.13;6.65;;;0.10;99.90;;;;;;8231014;28;20033;-81
2023/02/14 03:27:02;;;;;;;18.35;8.05;;;-0.10;99.90;;;;;;8230724;28;20123;-81
2023/02/14 03:31:09;;;;;;;10.52;5.50;;;0.00;99.90;;;;;;8232265;28;20556;-81
2023/02/14 03:35:31;;;;;;;13.13;6.85;;;0.20;99.90;;;;;;8231203;28;20109;-81
2023/02/14 03:40:06;;;;;;;18.55;6.93;;;0.20;99.90;;;;;;8230709;28;20023;-81
2023/02/14 03:44:10;;;;;;;12.20;6.18;;;0.20;99.90;;;;;;8220527;28;20043;-81
2023/02/14 03:48:13;;;;;;;26.58;7.88;;;0.10;99.90;;;;;;8224796;28;20031;-81
2023/02/14 03:52:15;;;;;;;14.18;6.95;;;0.10;99.90;;;;;;8232623;28;20507;-81
2023/02/14 03:56:45;;;;;;;16.25;6.88;;;0.00;99.90;;;;;;8232643;28;20031;-81
2023/02/14 04:00:49;;;;;;;12.55;6.50;;;0.30;99.90;;;;;;8228348;28;20018;-80
2023/02/14 04:04:52;;;;;;;21.67;8.98;;;0.30;99.90;;;;;;8230807;28;20022;-80
2023/02/14 04:08:53;;;;;;;15.18;5.15;;;0.20;99.90;;;;;;8231771;28;20033;-80
2023/02/14 04:12:53;;;;;;;11.80;5.88;;;0.20;99.90;;;;;;8230715;28;20030;-81
2023/02/14 04:21:14;;;;;;;12.95;6.32;;;0.10;99.90;;;;;;8230414;28;20042;-80
2023/02/14 04:25:15;;;;;;;18.77;7.28;;;0.00;99.90;;;;;;8230371;28;20376;-80
2023/02/14 04:29:15;;;;;;;16.42;8.00;;;-0.10;99.90;;;;;;8230749;28;20595;-80
2023/02/14 04:33:16;;;;;;;19.40;8.38;;;0.00;99.90;;;;;;8230310;28;20495;-80
2023/02/14 04:37:18;;;;;;;22.77;7.38;;;0.00;99.90;;;;;;8229448;28;20031;-79
2023/02/14 04:41:19;;;;;;;15.38;6.63;;;-0.40;99.90;;;;;;8228406;28;20027;-79
2023/02/14 04:45:19;;;;;;;17.13;7.68;;;-0.20;99.90;;;;;;8228630;28;20560;-78
2023/02/14 04:49:20;;;;;;;21.35;8.20;;;0.00;99.90;;;;;;8228467;28;20038;-77
2023/02/14 04:53:21;;;;;;;17.40;7.10;;;0.00;99.90;;;;;;8228852;28;20416;-79
2023/02/14 04:57:21;;;;;;;18.58;7.03;;;-0.20;99.90;;;;;;8232064;28;20046;-79
2023/02/14 05:01:22;;;;;;;17.38;8.18;;;-0.10;99.90;;;;;;8232573;28;20019;-78
2023/02/14 05:05:23;;;;;;;14.63;7.07;;;-0.20;99.90;;;;;;8233795;28;20045;-79
2023/02/14 05:09:23;;;;;;;14.45;6.30;;;-0.40;99.90;;;;;;8233699;28;20039;-79
2023/02/14 05:13:24;;;;;;;17.08;7.75;;;-0.30;99.90;;;;;;8232453;28;20042;-79
2023/02/14 05:17:24;;;;;;;13.48;6.82;;;-0.20;99.90;;;;;;8229607;28;20495;-79
2023/02/14 05:21:25;;;;;;;10.75;5.72;;;-0.10;99.90;;;;;;8233443;28;20027;-80
2023/02/14 05:25:25;;;;;;;22.15;8.13;;;0.00;99.90;;;;;;8234039;28;20047;-80
2023/02/14 05:29:26;;;;;;;17.25;7.75;;;-0.20;99.90;;;;;;8233989;28;20089;-79
2023/02/14 05:33:27;;;;;;;14.90;6.93;;;-0.20;99.90;;;;;;8232960;28;20041;-80
2023/02/14 05:37:27;;;;;;;21.02;6.57;;;-0.40;99.90;;;;;;8232533;28;20037;-80
2023/02/14 05:41:28;;;;;;;18.65;6.55;;;-0.50;99.90;;;;;;8233666;28;20015;-80
2023/02/14 05:45:28;;;;;;;19.33;7.32;;;-0.60;99.90;;;;;;8232336;28;20082;-80
2023/02/14 05:49:29;;;;;;;10.27;5.95;;;-0.50;99.90;;;;;;8233093;28;20422;-80
2023/02/14 05:53:29;;;;;;;12.55;5.22;;;-0.50;99.90;;;;;;8234082;28;20023;-80
2023/02/14 05:57:30;;;;;;;12.15;7.03;;;-0.20;99.90;;;;;;8231990;28;20058;-80
2023/02/14 06:01:31;;;;;;;16.60;5.47;;;-0.20;99.90;;;;;;8227479;28;20015;-79
2023/02/14 06:05:31;;;;;;;16.20;6.10;;;-0.40;99.90;;;;;;8231658;28;20054;-78
2023/02/14 06:09:32;;;;;;;22.73;6.90;;;-0.50;99.90;;;;;;8231993;28;20035;-78
2023/02/14 06:13:32;;;;;;;18.70;6.18;;;-0.60;99.90;;;;;;8233122;28;20023;-80
2023/02/14 06:17:33;;;;;;;12.05;5.40;;;-0.50;99.90;;;;;;8232064;28;20022;-79
2023/02/14 06:21:34;;;;;;;35.38;6.63;;;-0.50;99.90;;;;;;8232287;28;20034;-79
2023/02/14 06:25:34;;;;;;;22.38;7.25;;;-0.50;99.90;;;;;;8233404;28;20403;-79
2023/02/14 06:29:35;;;;;;;18.00;8.40;;;-0.40;99.90;;;;;;8231698;28;20372;-79
2023/02/14 06:33:35;;;;;;;14.32;5.88;;;-0.40;99.90;;;;;;8230795;28;20118;-79
2023/02/14 06:37:37;;;;;;;19.17;6.85;;;-0.50;99.90;;;;;;8231931;28;20373;-79
2023/02/14 06:41:38;;;;;;;21.05;6.88;;;-0.50;99.90;;;;;;8231569;28;20114;-79
2023/02/14 06:45:42;;;;;;;31.27;6.95;;;-0.70;99.90;;;;;;8230532;28;20026;-79
2023/02/14 06:49:42;;;;;;;21.38;8.35;;;-0.70;99.90;;;;;;8230492;28;20022;-78
2023/02/14 06:53:43;;;;;;;17.88;8.50;;;-0.50;99.90;;;;;;8229067;28;20026;-78
2023/02/14 06:57:44;;;;;;;15.38;6.55;;;-0.40;99.90;;;;;;8231202;28;20058;-79
2023/02/14 07:01:45;;;;;;;23.80;8.25;;;-0.40;99.90;;;;;;8228055;28;20073;-79
2023/02/14 07:05:45;;;;;;;24.05;7.85;;;-0.40;99.90;;;;;;8230106;28;20121;-79
2023/02/14 07:09:46;;;;;;;14.23;4.80;;;-0.50;99.90;;;;;;8230554;28;20380;-79
2023/02/14 07:13:46;;;;;;;15.43;6.63;;;-0.20;99.90;;;;;;8230828;28;20061;-79
2023/02/14 07:17:47;;;;;;;16.42;6.00;;;-0.10;99.90;;;;;;8231692;28;20081;-79
2023/02/14 07:21:47;;;;;;;17.45;6.93;;;-0.20;99.90;;;;;;8230151;28;20081;-78
2023/02/14 07:25:48;;;;;;;15.15;7.45;;;-0.10;99.90;;;;;;8230646;28;20105;-79
2023/02/14 07:29:48;;;;;;;15.40;6.90;;;-0.10;99.90;;;;;;8230415;28;20098;-79
2023/02/14 07:33:50;;;;;;;19.65;8.27;;;-0.20;99.90;;;;;;8229745;28;20034;-79
2023/02/14 07:37:51;;;;;;;18.35;7.97;;;-0.10;99.90;;;;;;8229829;28;20090;-79
2023/02/14 07:41:52;;;;;;;20.23;8.43;;;0.00;99.90;;;;;;8230144;28;20404;-79
2023/02/14 07:45:53;;;;;;;34.88;8.45;;;0.00;99.90;;;;;;8230776;28;20106;-77
2023/02/14 07:49:53;;;;;;;17.55;7.28;;;0.10;99.90;;;;;;8230693;28;20035;-79
2023/02/14 07:53:54;;;;;;;25.77;8.30;;;0.30;99.90;;;;;;8229134;28;20053;-79
2023/02/14 07:57:54;;;;;;;30.70;9.90;;;0.20;99.90;;;;;;8229198;28;20490;-79
2023/02/14 08:01:55;;;;;;;21.33;8.57;;;0.20;99.90;;;;;;8226379;28;20030;-78
2023/02/14 08:05:58;;;;;;;15.85;7.88;;;0.10;99.90;;;;;;8229611;28;20408;-79
2023/02/14 08:09:59;;;;;;;22.30;8.85;;;0.10;99.90;;;;;;8230690;28;20027;-79
2023/02/14 08:13:59;;;;;;;29.10;8.82;;;0.30;99.90;;;;;;8229060;28;20399;-79
2023/02/14 08:18:00;;;;;;;18.10;7.32;;;0.60;99.90;;;;;;8228622;28;20038;-78
2023/02/14 08:22:01;;;;;;;29.08;10.05;;;0.60;99.90;;;;;;8229173;28;20471;-79
2023/02/14 08:26:02;;;;;;;32.63;10.00;;;0.60;99.90;;;;;;8229270;28;20034;-79
2023/02/14 08:30:03;;;;;;;40.40;10.70;;;0.70;99.90;;;;;;8228718;28;20053;-77
2023/02/14 08:34:04;;;;;;;49.08;9.57;;;0.80;99.90;;;;;;8234524;28;20039;-78
2023/02/14 08:38:05;;;;;;;21.30;9.85;;;1.00;99.90;;;;;;8236658;28;20035;-79
2023/02/14 08:42:06;;;;;;;22.48;9.02;;;1.00;99.90;;;;;;8235100;28;20027;-79
2023/02/14 08:46:06;;;;;;;17.88;7.78;;;1.00;99.90;;;;;;8234886;28;20077;-80
2023/02/14 08:50:10;;;;;;;21.02;8.90;;;0.90;99.90;;;;;;8235132;28;20050;-79
2023/02/14 08:54:11;;;;;;;16.23;6.28;;;1.30;99.90;;;;;;8227620;28;20022;-79
2023/02/14 08:58:12;;;;;;;26.35;9.27;;;1.40;99.90;;;;;;8233112;28;20035;-79
2023/02/14 09:02:13;;;;;;;24.13;10.57;;;1.40;99.90;;;;;;8235410;28;20023;-79
2023/02/14 09:06:16;;;;;;;20.58;8.73;;;1.50;99.90;;;;;;8233976;28;20527;-79
2023/02/14 09:10:17;;;;;;;20.73;8.98;;;1.60;99.90;;;;;;8235366;28;20619;-79
2023/02/14 09:14:19;;;;;;;17.95;8.02;;;1.90;99.90;;;;;;8234708;28;20027;-79
2023/02/14 09:18:20;;;;;;;18.60;8.40;;;2.10;99.90;;;;;;8234110;28;20035;-78
2023/02/14 09:22:20;;;;;;;16.40;8.00;;;2.20;99.90;;;;;;8233968;28;20023;-79
2023/02/14 09:26:21;;;;;;;12.05;7.22;;;2.50;99.90;;;;;;8233987;28;20109;-78
2023/02/14 09:30:21;;;;;;;17.15;8.07;;;2.70;99.90;;;;;;8233406;28;20054;-79
2023/02/14 09:38:42;;;;;;;18.27;7.85;;;2.70;99.90;;;;;;8235459;28;20033;-79
2023/02/14 09:43:15;;;;;;;15.60;7.75;;;2.70;99.90;;;;;;8233590;28;20376;-78
2023/02/14 09:47:38;;;;;;;15.68;8.02;;;2.50;99.90;;;;;;8213712;28;20117;-78
2023/02/14 09:51:44;;;;;;;19.25;9.57;;;2.80;99.90;;;;;;8234752;28;20574;-79
2023/02/14 09:55:58;;;;;;;19.25;8.88;;;3.30;99.90;;;;;;8232657;28;20026;-79
2023/02/14 10:00:10;;;;;;;20.08;9.88;;;3.60;99.90;;;;;;8233488;28;20439;-79
2023/02/14 10:04:48;;;;;;;17.13;8.25;;;4.10;99.90;;;;;;8235230;28;20023;-79
2023/02/14 10:09:09;;;;;;;18.73;9.52;;;4.60;99.90;;;;;;8228664;28;20038;-79
2023/02/14 10:13:36;;;;;;;16.65;8.18;;;4.40;99.90;;;;;;8235785;28;20082;-77
2023/02/14 10:17:45;;;;;;;15.43;4.88;;;4.10;99.90;;;;;;8231617;28;20053;-78
2023/02/14 10:21:52;;;;;;;17.67;8.50;;;3.80;99.90;;;;;;8232635;28;20015;-79
2023/02/14 10:26:23;;;;;;;9.90;5.68;;;3.70;99.90;;;;;;8232321;28;20518;-79
2023/02/14 10:30:24;;;;;;;17.23;8.80;;;4.20;99.90;;;;;;8226198;28;20039;-78
2023/02/14 10:34:33;;;;;;;6.18;3.80;;;4.10;99.90;;;;;;8230919;28;20026;-79
2023/02/14 10:38:53;;;;;;;14.52;7.07;;;3.90;99.90;;;;;;8231609;28;20042;-79
2023/02/14 10:43:19;;;;;;;17.30;8.23;;;3.70;99.90;;;;;;8232113;28;20026;-79
2023/02/14 10:47:30;;;;;;;18.70;9.00;;;3.70;99.90;;;;;;8231962;28;20022;-79
2023/02/14 10:51:42;;;;;;;15.48;7.95;;;3.90;99.90;;;;;;8230975;28;20455;-79
2023/02/14 10:55:50;;;;;;;17.35;7.80;;;4.00;99.90;;;;;;8229491;28;20019;-79
2023/02/14 11:00:18;;;;;;;17.35;8.70;;;4.40;99.90;;;;;;8232455;28;20101;-78
2023/02/14 11:04:22;;;;;;;17.35;8.10;;;5.30;99.90;;;;;;8229937;28;20023;-80
2023/02/14 11:08:32;;;;;;;20.30;9.65;;;6.60;99.90;;;;;;8223660;28;20507;-79
2023/02/14 11:12:32;;;;;;;;;;;6.80;99.90;;;;;;8230349;28;20545;-78
2023/02/14 11:16:35;;;;;;;4.97;3.15;;;5.90;99.90;;;;;;8229793;28;19925;-79
2023/02/14 11:20:36;;;;;;;13.63;6.47;;;6.20;99.90;;;;;;8229945;28;20570;-79
2023/02/14 11:24:40;;;;;;;15.70;8.68;;;5.40;99.90;;;;;;8231477;28;20026;-80
2023/02/14 11:28:48;;;;;;;16.52;8.40;;;5.80;99.90;;;;;;8230687;28;20022;-79
2023/02/14 11:32:53;;;;;;;15.82;8.55;;;6.00;99.90;;;;;;8229671;28;20038;-79
2023/02/14 11:36:54;;;;;;;15.30;8.32;;;6.60;99.90;;;;;;8230199;28;20035;-80
2023/02/14 11:40:57;;;;;;;18.95;8.82;;;7.10;99.90;;;;;;8229304;28;20089;-79
2023/02/14 11:44:58;;;;;;;18.42;9.43;;;6.80;99.90;;;;;;8228701;28;20030;-78
2023/02/14 11:49:22;;;;;;;17.20;8.35;;;7.00;99.90;;;;;;8229319;28;20053;-78
2023/02/14 11:53:25;;;;;;;14.98;7.95;;;7.90;99.90;;;;;;8225087;28;20055;-79
2023/02/14 11:57:32;;;;;;;16.83;7.57;;;8.60;99.90;;;;;;8228146;28;20497;-78
2023/02/14 12:01:35;;;;;;;14.93;8.00;;;9.00;99.90;;;;;;8224640;28;20054;-78
2023/02/14 12:05:48;;;;;;;17.33;7.13;;;8.50;99.90;;;;;;8229634;28;20054;-80
2023/02/14 12:10:10;;;;;;;16.40;8.80;;;8.30;99.90;;;;;;8237126;28;20483;-79
2023/02/14 12:14:21;;;;;;;12.57;5.57;;;9.00;99.90;;;;;;8244170;28;20117;-79
2023/02/14 12:18:33;;;;;;;;;;;8.20;99.90;;;;;;8231418;28;20028;-79
2023/02/14 12:22:45;;;;;;;18.67;8.68;;;7.90;99.90;;;;;;8234534;28;19910;-79
2023/02/14 12:27:10;;;;;;;16.13;6.53;;;7.90;99.90;;;;;;8235418;28;20022;-78
2023/02/14 12:31:12;;;;;;;17.83;8.63;;;8.10;99.90;;;;;;8233496;28;20057;-78
2023/02/14 12:35:15;;;;;;;13.30;6.15;;;8.90;99.90;;;;;;8228352;28;20491;-79
2023/02/14 12:39:49;;;;;;;10.30;4.57;;;8.70;99.90;;;;;;8234646;28;20035;-79
2023/02/14 12:43:53;;;;;;;18.73;9.35;;;8.60;99.90;;;;;;8234919;28;20034;-79
2023/02/14 12:48:14;;;;;;;13.27;6.47;;;8.50;99.90;;;;;;8235726;28;20050;-78
2023/02/14 12:52:28;;;;;;;16.98;8.15;;;7.40;99.90;;;;;;8227847;28;20559;-78
2023/02/14 12:56:53;;;;;;;10.75;4.72;;;6.40;99.90;;;;;;8233055;28;20111;-77
2023/02/14 13:01:24;;;;;;;18.25;9.15;;;6.10;99.90;;;;;;8234274;28;20411;-78
2023/02/14 13:05:53;;;;;;;7.93;5.32;;;6.00;99.90;;;;;;8234265;28;20122;-79
2023/02/14 13:10:22;;;;;;;12.98;6.90;;;6.10;99.90;;;;;;8235674;28;20530;-79
2023/02/14 13:14:41;;;;;;;12.75;6.78;;;6.10;99.90;;;;;;8233502;28;20518;-79
2023/02/14 13:18:49;;;;;;;7.78;3.83;;;6.20;99.90;;;;;;8233937;28;20102;-80
2023/02/14 13:22:51;;;;;;;19.08;9.52;;;6.20;99.90;;;;;;8234025;28;20054;-79
2023/02/14 13:26:55;;;;;;;4.40;2.88;;;6.20;99.90;;;;;;8233923;28;20030;-79
2023/02/14 13:30:57;;;;;;;17.92;8.40;;;6.30;99.90;;;;;;8249012;28;20026;-80
2023/02/14 13:34:59;;;;;;;12.55;5.72;;;6.30;99.90;;;;;;8233025;28;20042;-80
2023/02/14 13:39:00;;;;;;;8.80;4.90;;;6.40;99.90;;;;;;8233902;28;20030;-79
2023/02/14 13:43:01;;;;;;;21.85;9.65;;;6.40;99.90;;;;;;8232976;28;20019;-79
2023/02/14 13:47:02;;;;;;;18.45;9.57;;;6.40;99.90;;;;;;8234152;28;20030;-79
2023/02/14 13:51:08;;;;;;;23.55;11.20;;;6.50;99.90;;;;;;8233988;28;20391;-80
2023/02/14 13:55:16;;;;;;;17.42;9.82;;;6.60;99.90;;;;;;8232055;28;20455;-79
2023/02/14 13:59:34;;;;;;;18.92;10.50;;;6.70;99.90;;;;;;8226596;28;20023;-79
2023/02/14 14:03:54;;;;;;;20.42;10.02;;;6.70;99.90;;;;;;8231786;28;20103;-78
2023/02/14 14:08:19;;;;;;;19.42;9.80;;;6.60;99.90;;;;;;8231827;28;20030;-80
2023/02/14 14:12:26;;;;;;;17.58;9.80;;;6.70;99.90;;;;;;8231187;28;20035;-78
2023/02/14 14:16:32;;;;;;;19.77;10.52;;;6.80;99.90;;;;;;8231099;28;20031;-79
2023/02/14 14:20:51;;;;;;;20.25;9.77;;;6.80;99.90;;;;;;8230617;28;20034;-77
2023/02/14 14:24:54;;;;;;;17.83;10.00;;;6.90;99.90;;;;;;8231946;28;20102;-79
2023/02/14 14:28:55;;;;;;;14.10;7.70;;;6.80;99.90;;;;;;8231528;28;20034;-80
2023/02/14 14:33:12;;;;;;;18.92;10.20;;;6.90;99.90;;;;;;8231083;28;20070;-79
2023/02/14 14:37:19;;;;;;;22.73;10.93;;;6.90;99.90;;;;;;8231719;28;20022;-79
2023/02/14 14:41:27;;;;;;;20.13;10.75;;;6.90;99.90;;;;;;8232377;28;20396;-79
2023/02/14 14:45:30;;;;;;;20.35;10.52;;;6.90;99.90;;;;;;8231456;28;20089;-79
2023/02/14 14:49:31;;;;;;;21.98;12.13;;;6.90;99.90;;;;;;8230802;28;20147;-79
2023/02/14 14:53:53;;;;;;;29.75;14.43;;;7.00;99.90;;;;;;8230200;28;20122;-80
2023/02/14 14:57:57;;;;;;;35.80;18.48;;;7.00;99.90;;;;;;8229882;28;20027;-79
2023/02/14 15:01:57;;;;;;;19.23;9.80;;;7.10;99.90;;;;;;8231201;28;20447;-79
2023/02/14 15:06:13;;;;;;;20.25;10.45;;;7.20;99.90;;;;;;8231650;28;20031;-80
2023/02/14 15:10:23;;;;;;;18.83;9.70;;;7.10;99.90;;;;;;8225282;28;20518;-79
2023/02/14 15:14:26;;;;;;;20.90;10.73;;;7.10;99.90;;;;;;8230006;28;20058;-80
2023/02/14 15:18:27;;;;;;;16.75;9.13;;;7.00;99.90;;;;;;8231658;28;20495;-80
2023/02/14 15:22:40;;;;;;;20.23;9.45;;;6.90;99.90;;;;;;8231171;28;20030;-80
2023/02/14 15:26:44;;;;;;;19.88;10.50;;;6.80;99.90;;;;;;8230222;28;20042;-80
2023/02/14 15:30:55;;;;;;;17.67;9.45;;;6.30;99.90;;;;;;8229388;28;20118;-80
2023/02/14 15:34:56;;;;;;;;;;;5.90;99.90;;;;;;8232045;28;20047;-79
2023/02/14 15:38:59;;;;;;;18.70;9.80;;;5.60;99.90;;;;;;8229141;28;19961;-80
2023/02/14 15:43:20;;;;;;;19.15;9.65;;;5.40;99.90;;;;;;8229161;28;20027;-80
2023/02/14 15:47:21;;;;;;;21.73;10.05;;;5.40;99.90;;;;;;8224373;28;20080;-80
2023/02/14 15:51:25;;;;;;;20.33;10.15;;;5.50;99.90;;;;;;8229409;28;20030;-79
2023/02/14 15:55:26;;;;;;;20.98;10.70;;;5.40;99.90;;;;;;8230802;28;20030;-80
2023/02/14 15:59:32;;;;;;;21.30;10.98;;;4.90;99.90;;;;;;8230059;28;20050;-80
2023/02/14 16:03:36;;;;;;;23.25;10.27;;;4.60;99.90;;;;;;8225319;28;20027;-79
2023/02/14 16:07:36;;;;;;;20.63;10.60;;;4.50;99.90;;;;;;8229005;28;20027;-80
2023/02/14 16:11:37;;;;;;;21.08;10.50;;;4.50;99.90;;;;;;8229268;28;20347;-79
2023/02/14 16:15:41;;;;;;;17.25;9.02;;;4.20;99.90;;;;;;8229040;28;20538;-79
2023/02/14 16:19:44;;;;;;;20.98;10.07;;;3.80;99.90;;;;;;8229221;28;20027;-80
2023/02/14 16:23:47;;;;;;;21.48;10.57;;;3.60;99.90;;;;;;8229650;28;20406;-79
2023/02/14 16:27:47;;;;;;;19.05;9.90;;;3.40;99.90;;;;;;8229479;28;20019;-78
2023/02/14 16:31:54;;;;;;;21.73;9.90;;;3.10;99.90;;;;;;8230178;28;20041;-80
2023/02/14 16:36:05;;;;;;;21.70;9.63;;;2.80;99.90;;;;;;8227774;28;20066;-79
2023/02/14 16:40:12;;;;;;;21.92;10.35;;;2.40;99.90;;;;;;8230559;28;20027;-78
2023/02/14 16:44:14;;;;;;;24.55;10.85;;;2.30;99.90;;;;;;8223786;28;20027;-80
2023/02/14 16:48:14;;;;;;;21.38;11.07;;;2.30;99.90;;;;;;8229899;28;20530;-80
2023/02/14 16:52:20;;;;;;;26.08;10.70;;;2.30;99.90;;;;;;8229808;28;20026;-80
2023/02/14 16:56:51;;;;;;;28.23;10.80;;;1.90;99.90;;;;;;8236662;28;20035;-79
2023/02/14 17:00:52;;;;;;;22.40;10.30;;;1.50;99.90;;;;;;8233137;28;20058;-79
2023/02/14 17:04:53;;;;;;;24.10;10.43;;;1.40;99.90;;;;;;8235399;28;20019;-79
2023/02/14 17:08:56;;;;;;;23.15;10.15;;;1.30;99.90;;;;;;8239780;28;20031;-79
2023/02/14 17:13:00;;;;;;;21.52;10.05;;;1.10;99.90;;;;;;8235719;28;20054;-79
2023/02/14 17:17:00;;;;;;;28.63;11.02;;;0.90;99.90;;;;;;8233992;28;20035;-79
2023/02/14 17:21:02;;;;;;;21.92;10.02;;;0.70;99.90;;;;;;8234580;28;20118;-78
2023/02/14 17:25:04;;;;;;;22.50;9.75;;;0.70;99.90;;;;;;8234377;28;20027;-79
2023/02/14 17:29:05;;;;;;;21.63;9.90;;;1.00;99.90;;;;;;8234253;28;20038;-79
2023/02/14 17:33:06;;;;;;;22.90;10.13;;;0.90;99.90;;;;;;8233003;28;20026;-80
2023/02/14 17:37:06;;;;;;;20.30;9.20;;;0.70;99.90;;;;;;8233712;28;20022;-79
2023/02/14 17:41:17;;;;;;;23.90;10.82;;;0.20;99.90;;;;;;8233742;28;20018;-79
2023/02/14 17:45:17;;;;;;;22.33;11.07;;;0.00;99.90;;;;;;8227077;28;20403;-79
2023/02/14 17:49:18;;;;;;;24.92;10.93;;;0.00;99.90;;;;;;8233322;28;20027;-79
2023/02/14 17:53:19;;;;;;;26.02;11.15;;;-0.10;99.90;;;;;;8232059;28;20113;-79
2023/02/14 17:57:19;;;;;;;41.58;9.85;;;0.10;99.90;;;;;;8232372;28;20058;-79
2023/02/14 18:01:22;;;;;;;28.90;9.85;;;0.10;99.90;;;;;;8235386;28;20026;-79
2023/02/14 18:05:23;;;;;;;24.15;8.82;;;0.00;99.90;;;;;;8225575;28;20035;-77
2023/02/14 18:09:24;;;;;;;36.50;8.60;;;-0.20;99.90;;;;;;8223155;28;20095;-80
2023/02/14 18:13:25;;;;;;;51.38;9.10;;;-0.60;99.90;;;;;;8222451;28;20022;-81
2023/02/14 18:17:25;;;;;;;37.38;10.18;;;-0.80;99.90;;;;;;8222678;28;20019;-81
2023/02/14 18:21:26;;;;;;;32.28;10.38;;;-1.10;99.90;;;;;;8218575;28;20050;-79
2023/02/14 18:25:27;;;;;;;38.22;10.57;;;-1.10;99.90;;;;;;8215489;28;20101;-79
2023/02/14 18:29:28;;;;;;;37.42;9.32;;;-1.20;99.90;;;;;;8219017;28;20069;-80
2023/02/14 18:33:29;;;;;;;43.90;10.35;;;-1.20;99.90;;;;;;8226020;28;20034;-80
2023/02/14 18:37:29;;;;;;;32.67;13.80;;;-1.00;99.90;;;;;;8227403;28;20090;-80
2023/02/14 18:41:30;;;;;;;33.80;13.48;;;-1.00;99.90;;;;;;8218841;28;20097;-80
2023/02/14 18:45:36;;;;;;;25.80;9.07;;;-1.10;99.90;;;;;;8221851;28;20037;-79
2023/02/14 18:49:36;;;;;;;22.10;7.57;;;-0.80;99.90;;;;;;8216133;28;20027;-79
2023/02/14 18:53:38;;;;;;;22.60;11.27;;;-0.40;99.90;;;;;;8205564;28;20185;-79
2023/02/14 18:57:39;;;;;;;22.83;10.20;;;-0.60;99.90;;;;;;8207176;28;20094;-80
2023/02/14 19:01:43;;;;;;;14.27;7.80;;;-0.80;99.90;;;;;;8211250;28;20081;-81
2023/02/14 19:05:43;;;;;;;21.90;7.85;;;-0.70;99.90;;;;;;8208803;28;20038;-81
2023/02/14 19:09:44;;;;;;;33.35;7.60;;;-0.50;99.90;;;;;;8218313;28;20566;-82
2023/02/14 19:13:47;;;;;;;27.30;8.98;;;-0.10;99.90;;;;;;8223087;28;20116;-80
2023/02/14 19:17:47;;;;;;;28.20;8.23;;;-0.20;99.90;;;;;;8227878;28;20516;-80
2023/02/14 19:21:48;;;;;;;45.85;7.63;;;-0.20;99.90;;;;;;8227320;28;20115;-81
2023/02/14 19:25:49;;;;;;;48.63;7.80;;;-0.30;99.90;;;;;;8231704;28;20023;-81
2023/02/14 19:29:49;;;;;;;35.70;8.00;;;0.00;99.90;;;;;;8225010;28;20039;-80
2023/02/14 19:33:50;;;;;;;30.60;7.13;;;0.20;99.90;;;;;;8213681;28;20039;-80
2023/02/14 19:37:52;;;;;;;35.97;8.40;;;0.40;99.90;;;;;;8215606;28;20085;-80
2023/02/14 19:41:52;;;;;;;24.77;8.48;;;0.30;99.90;;;;;;8212589;28;20114;-80
2023/02/14 19:45:53;;;;;;;31.55;7.47;;;0.30;99.90;;;;;;8226385;28;20587;-81
2023/02/14 19:49:53;;;;;;;22.98;7.53;;;0.50;99.90;;;;;;8220677;28;20484;-79
2023/02/14 19:53:55;;;;;;;37.55;7.50;;;0.40;99.90;;;;;;8212966;28;20027;-79
2023/02/14 19:57:56;;;;;;;21.40;6.68;;;0.60;99.90;;;;;;8211907;28;20027;-79
2023/02/14 20:01:57;;;;;;;33.55;6.28;;;0.50;99.90;;;;;;8208767;28;20019;-79
2023/02/14 20:05:58;;;;;;;23.05;7.40;;;0.30;99.90;;;;;;8216233;28;20022;-78
2023/02/14 20:09:58;;;;;;;29.85;7.50;;;0.50;99.90;;;;;;8217202;28;20419;-79
2023/02/14 20:13:59;;;;;;;26.95;7.53;;;0.40;99.90;;;;;;8213150;28;20046;-80
2023/02/14 20:18:00;;;;;;;26.33;6.78;;;0.30;99.90;;;;;;8207772;28;20031;-79
2023/02/14 20:22:01;;;;;;;25.45;6.25;;;0.40;99.90;;;;;;8212022;28;20027;-80
2023/02/14 20:26:02;;;;;;;18.55;6.03;;;0.40;99.90;;;;;;8219095;28;20031;-81
2023/02/14 20:30:05;;;;;;;32.47;6.60;;;0.20;99.90;;;;;;8232587;28;20031;-80
2023/02/14 20:34:06;;;;;;;22.70;7.22;;;0.10;99.90;;;;;;8234096;28;20578;-81
2023/02/14 20:38:07;;;;;;;9.88;5.75;;;0.10;99.90;;;;;;8235157;28;20038;-83
2023/02/14 20:42:07;;;;;;;14.48;5.75;;;0.00;99.90;;;;;;8236233;28;20034;-81
2023/02/14 20:46:10;;;;;;;16.90;6.03;;;0.00;99.90;;;;;;8235436;28;20023;-82
2023/02/14 20:50:11;;;;;;;16.70;5.60;;;-0.10;99.90;;;;;;8250491;28;20078;-82
2023/02/14 20:54:12;;;;;;;29.50;5.78;;;0.20;99.90;;;;;;8245509;28;20023;-81
2023/02/14 20:58:12;;;;;;;22.80;7.43;;;0.30;99.90;;;;;;8235750;28;20065;-81
2023/02/14 21:02:14;;;;;;;16.20;5.90;;;0.20;99.90;;;;;;8235145;28;20085;-82
2023/02/14 21:06:16;;;;;;;13.32;6.90;;;0.00;99.90;;;;;;8227551;28;20034;-81
2023/02/14 21:10:17;;;;;;;22.40;5.78;;;0.20;99.90;;;;;;8235649;28;20031;-81
2023/02/14 21:14:17;;;;;;;13.60;5.78;;;0.00;99.90;;;;;;8230328;28;20031;-81
2023/02/14 21:18:18;;;;;;;23.10;5.70;;;0.00;99.90;;;;;;8232523;28;20035;-80
2023/02/14 21:22:18;;;;;;;29.27;6.47;;;0.10;99.90;;;;;;8234979;28;20031;-81